Time;durP1;ratioP1;P1;durP2;ratioP2;P2;SDS_P1;SDS_P2;PMS_P1;PMS_P2;Temp;Humidity;BMP_temperature;BMP_pressure;BME280_temperature;BME280_humidity;BME280_pressure;Samples;Min_cycle;Max_cycle;Signal;HPM_P1;HPM_P2
2021/12/07 00:00:23;;;;;;;0.00;0.00;;;;;;;3.79;87.32;100604.22;5037616;28;20105;-73
2021/12/07 00:02:49;;;;;;;0.10;0.10;;;;;;;3.91;85.64;100611.72;5033098;28;20034;-74
2021/12/07 00:05:14;;;;;;;0.10;0.10;;;;;;;3.97;85.10;100611.16;5035246;28;20156;-70
2021/12/07 00:07:42;;;;;;;0.10;0.10;;;;;;;4.05;83.96;100606.38;5036348;28;20144;-76
2021/12/07 00:10:08;;;;;;;0.10;0.10;;;;;;;4.07;83.64;100613.41;5016616;28;20037;-72
2021/12/07 00:12:37;;;;;;;0.10;0.10;;;;;;;4.14;82.05;100630.16;5018079;28;20061;-68
2021/12/07 00:15:04;;;;;;;0.17;0.17;;;;;;;4.17;82.50;100621.66;5016666;28;20036;-70
2021/12/07 00:17:31;;;;;;;0.10;0.10;;;;;;;4.15;81.00;100629.34;5024044;28;20028;-75
2021/12/07 00:19:57;;;;;;;0.20;0.20;;;;;;;4.22;80.78;100633.13;5018669;28;20030;-71
2021/12/07 00:22:23;;;;;;;0.17;0.17;;;;;;;4.23;80.61;100635.81;5016640;28;20041;-73
2021/12/07 00:24:48;;;;;;;0.20;0.20;;;;;;;4.19;80.42;100640.75;5017209;28;20026;-74
2021/12/07 00:27:14;;;;;;;0.20;0.20;;;;;;;4.17;80.38;100637.22;5000493;28;20352;-73
2021/12/07 00:29:40;;;;;;;0.30;0.30;;;;;;;4.17;79.70;100640.69;5034567;28;20033;-69
2021/12/07 00:32:18;;;;;;;0.30;0.30;;;;;;;4.13;80.61;100655.19;5036122;28;20041;-74
2021/12/07 00:35:01;;;;;;;0.30;0.30;;;;;;;4.15;80.04;100656.94;5035377;28;20034;-70
2021/12/07 00:37:31;;;;;;;0.10;0.10;;;;;;;4.20;79.15;100655.50;5037179;28;20021;-72
2021/12/07 00:39:57;;;;;;;0.20;0.20;;;;;;;4.20;79.75;100655.50;5036746;28;20045;-73
2021/12/07 00:42:23;;;;;;;0.20;0.20;;;;;;;4.27;79.30;100657.59;5037588;28;20036;-74
2021/12/07 00:44:48;;;;;;;0.20;0.20;;;;;;;4.25;78.71;100667.88;5036030;28;20030;-73
2021/12/07 00:47:14;;;;;;;0.20;0.20;;;;;;;4.34;77.94;100671.75;5033793;28;20036;-70
2021/12/07 00:49:40;;;;;;;0.10;0.10;;;;;;;4.32;79.16;100673.38;5032656;28;20041;-71
2021/12/07 00:52:06;;;;;;;0.30;0.30;;;;;;;4.32;78.00;100678.56;5036686;28;20025;-72
2021/12/07 00:54:32;;;;;;;0.17;0.17;;;;;;;4.37;77.98;100679.72;5036071;28;20029;-67
2021/12/07 00:56:58;;;;;;;0.23;0.23;;;;;;;4.39;77.96;100680.66;5035306;28;20123;-70
2021/12/07 00:59:25;;;;;;;0.20;0.20;;;;;;;4.34;77.66;100682.13;5021576;28;20029;-70
2021/12/07 01:01:51;;;;;;;0.20;0.20;;;;;;;4.30;78.18;100687.97;5022589;28;20053;-71
2021/12/07 01:04:16;;;;;;;0.30;0.30;;;;;;;4.32;77.20;100694.13;5035422;28;20438;-74
2021/12/07 01:25:36;;;;;;;0.20;0.20;;;;;;;4.33;77.22;100734.78;5034769;28;20075;-71
2021/12/07 01:28:10;;;;;;;0.20;0.20;;;;;;;4.33;77.08;100725.31;5017189;28;20086;-69
2021/12/07 01:30:42;;;;;;;0.27;0.27;;;;;;;4.36;77.46;100732.38;5017030;28;20395;-71
2021/12/07 01:41:19;;;;;;;0.30;0.30;;;;;;;4.24;77.20;100728.31;5017847;28;20052;-69
2021/12/07 01:59:37;;;;;;;0.30;0.30;;;;;;;4.25;75.84;100774.16;5029122;28;20132;-72
2021/12/07 02:02:05;;;;;;;0.30;0.30;;;;;;;4.27;76.70;100769.06;5022791;28;20032;-74
2021/12/07 02:04:31;;;;;;;0.20;0.20;;;;;;;4.29;75.98;100793.38;5037499;28;20049;-73
2021/12/07 02:06:56;;;;;;;0.30;0.30;;;;;;;4.33;76.29;100799.59;5020124;28;20261;-77
2021/12/07 02:09:22;;;;;;;0.30;0.30;;;;;;;4.36;76.03;100802.38;5035104;28;20099;-77
2021/12/07 02:11:50;;;;;;;0.20;0.20;;;;;;;4.33;76.35;100803.09;5037544;28;20047;-71
2021/12/07 02:14:17;;;;;;;0.23;0.23;;;;;;;4.32;76.42;100806.50;5039920;28;20028;-71
2021/12/07 02:17:05;;;;;;;0.10;0.10;;;;;;;4.31;76.57;100814.19;5039079;28;20039;-72
2021/12/07 02:19:31;;;;;;;0.30;0.30;;;;;;;4.27;76.71;100800.19;5026497;28;20319;-74
2021/12/07 02:21:57;;;;;;;0.30;0.30;;;;;;;4.24;77.08;100813.84;5040763;28;20380;-74
2021/12/07 02:24:23;;;;;;;0.23;0.23;;;;;;;4.19;76.57;100811.84;5020523;28;20029;-72
2021/12/07 02:26:49;;;;;;;0.23;0.23;;;;;;;4.19;76.49;100815.34;5019316;28;20363;-75
2021/12/07 02:29:16;;;;;;;0.20;0.20;;;;;;;4.23;76.37;100821.56;5033347;28;20037;-73
2021/12/07 02:31:41;;;;;;;0.20;0.20;;;;;;;4.21;76.25;100826.66;5039510;28;20045;-75
2021/12/07 02:34:07;;;;;;;0.20;0.20;;;;;;;4.21;76.71;100843.91;5039192;28;20064;-73
2021/12/07 02:36:33;;;;;;;0.30;0.30;;;;;;;4.16;77.24;100833.28;5037241;28;20327;-74
2021/12/07 02:38:58;;;;;;;0.20;0.20;;;;;;;4.12;76.90;100829.63;5030801;28;20128;-73
2021/12/07 02:41:24;;;;;;;0.20;0.20;;;;;;;4.11;77.67;100833.03;5039392;28;20080;-73
2021/12/07 02:43:50;;;;;;;0.23;0.23;;;;;;;4.15;76.65;100841.88;5039897;28;20025;-75
2021/12/07 02:46:15;;;;;;;0.20;0.20;;;;;;;4.24;76.57;100854.47;5039720;28;20025;-75
2021/12/07 02:48:41;;;;;;;0.20;0.20;;;;;;;4.29;76.23;100846.94;5037867;28;20368;-75
2021/12/07 02:51:06;;;;;;;0.17;0.17;;;;;;;4.35;75.96;100840.38;5029655;28;20018;-74
2021/12/07 02:53:34;;;;;;;0.20;0.20;;;;;;;4.37;76.67;100856.00;5018725;28;20029;-72
2021/12/07 02:56:01;;;;;;;0.30;0.30;;;;;;;4.39;76.41;100850.09;5051730;28;20046;-74
2021/12/07 02:58:27;;;;;;;0.20;0.20;;;;;;;4.38;77.15;100857.78;5026364;28;20037;-74
2021/12/07 03:01:04;;;;;;;0.27;0.27;;;;;;;4.34;76.91;100854.13;5026971;28;20044;-75
2021/12/07 03:03:34;;;;;;;0.20;0.20;;;;;;;4.37;76.27;100848.22;5025610;28;20100;-73
2021/12/07 03:06:18;;;;;;;0.20;0.20;;;;;;;4.40;77.41;100861.34;5018911;28;20029;-75
2021/12/07 03:09:18;;;;;;;0.20;0.20;;;;;;;4.35;76.94;100873.19;5018683;28;20026;-73
2021/12/07 03:28:20;;;;;;;0.20;0.20;;;;;;;4.10;80.60;100903.84;5035208;28;20029;-75
2021/12/07 03:30:46;;;;;;;0.20;0.20;;;;;;;4.10;80.71;100903.84;5037820;28;20036;-74
2021/12/07 03:33:11;;;;;;;0.20;0.20;;;;;;;4.10;80.10;100902.94;5032316;28;20300;-72
2021/12/07 03:35:38;;;;;;;0.30;0.30;;;;;;;4.18;79.04;100890.41;5017527;28;20018;-73
2021/12/07 03:38:04;;;;;;;0.10;0.10;;;;;;;4.24;78.91;100902.00;5019181;28;20026;-74
2021/12/07 03:40:30;;;;;;;0.20;0.20;;;;;;;4.30;78.02;100897.97;5018428;28;20374;-70
2021/12/07 03:42:56;;;;;;;0.30;0.30;;;;;;;4.33;78.13;100900.72;5021643;28;20025;-73
2021/12/07 03:45:21;;;;;;;0.20;0.20;;;;;;;4.32;78.32;100897.25;5038204;28;20100;-71
2021/12/07 03:47:47;;;;;;;0.20;0.20;;;;;;;4.37;76.48;100894.91;5029043;28;20106;-71
2021/12/07 03:50:13;;;;;;;0.30;0.30;;;;;;;4.41;76.32;100896.84;5027455;28;20029;-74
2021/12/07 03:52:38;;;;;;;0.20;0.20;;;;;;;4.42;76.58;100906.41;5038113;28;20021;-73
2021/12/07 03:55:05;;;;;;;0.20;0.20;;;;;;;4.39;76.51;100907.16;5038297;28;20036;-73
2021/12/07 03:57:30;;;;;;;0.30;0.30;;;;;;;4.34;76.27;100898.22;5038454;28;20091;-70
2021/12/07 03:59:56;;;;;;;0.20;0.20;;;;;;;4.34;76.16;100902.50;5037454;28;20029;-73
2021/12/07 04:02:22;;;;;;;0.30;0.30;;;;;;;4.34;75.71;100902.50;5020696;28;20427;-74
2021/12/07 04:04:52;;;;;;;0.40;0.40;;;;;;;4.28;77.36;100913.44;5034056;28;20347;-74
2021/12/07 04:07:18;;;;;;;0.20;0.20;;;;;;;4.20;77.43;100917.31;5021637;28;20029;-73
2021/12/07 04:09:43;;;;;;;0.20;0.20;;;;;;;4.10;78.06;100927.16;5034413;28;20057;-74
2021/12/07 04:12:09;;;;;;;0.20;0.20;;;;;;;4.01;79.05;100918.88;5037938;28;20029;-74
2021/12/07 04:14:34;;;;;;;0.17;0.17;;;;;;;3.93;80.25;100918.44;5038031;28;20064;-73
2021/12/07 04:16:59;;;;;;;0.20;0.20;;;;;;;3.87;80.11;100931.06;5038702;28;20029;-74
2021/12/07 04:19:25;;;;;;;0.20;0.20;;;;;;;3.83;80.77;100934.25;5019485;28;20376;-73
2021/12/07 04:21:50;;;;;;;0.30;0.30;;;;;;;3.80;80.79;100924.63;5018192;28;20032;-74
2021/12/07 04:24:15;;;;;;;0.20;0.20;;;;;;;3.77;80.60;100921.84;5018113;28;20105;-75
2021/12/07 04:26:42;;;;;;;0.20;0.20;;;;;;;3.69;81.40;100926.56;5029109;28;20270;-74
2021/12/07 04:29:08;;;;;;;0.27;0.27;;;;;;;3.60;81.46;100915.69;5037576;28;20112;-74
2021/12/07 04:31:34;;;;;;;0.30;0.30;;;;;;;3.53;81.94;100939.44;5026524;28;20121;-74
2021/12/07 04:33:59;;;;;;;0.20;0.20;;;;;;;3.45;82.25;100944.19;5018961;28;20092;-75
2021/12/07 04:36:24;;;;;;;0.20;0.20;;;;;;;3.37;82.44;100935.94;5027747;28;20435;-75
2021/12/07 04:38:50;;;;;;;0.20;0.20;;;;;;;3.35;82.59;100936.69;5038017;28;20328;-76
2021/12/07 04:41:15;;;;;;;0.20;0.20;;;;;;;3.35;82.85;100942.75;5037114;28;20047;-72
2021/12/07 04:43:41;;;;;;;0.20;0.20;;;;;;;3.35;82.73;100937.56;5037527;28;20043;-73
2021/12/07 04:46:21;;;;;;;0.20;0.20;;;;;;;3.33;83.09;100934.00;5032188;28;20028;-73
2021/12/07 04:59:23;;;;;;;0.10;0.10;;;;;;;3.38;82.43;100945.53;5036482;28;20044;-74
2021/12/07 05:01:49;;;;;;;0.20;0.20;;;;;;;3.38;82.06;100944.63;5036710;28;20026;-73
2021/12/07 05:04:23;;;;;;;0.20;0.20;;;;;;;3.34;81.90;100948.72;5036845;28;20332;-72
2021/12/07 05:06:51;;;;;;;0.20;0.20;;;;;;;3.29;82.37;100956.22;5035184;28;20036;-73
2021/12/07 05:14:29;;;;;;;0.20;0.20;;;;;;;3.29;81.99;100964.00;5017886;28;20029;-73
2021/12/07 05:25:21;;;;;;;0.20;0.20;;;;;;;3.09;82.33;100986.06;5017617;28;20459;-73
2021/12/07 05:38:35;;;;;;;0.10;0.10;;;;;;;2.74;83.61;101016.72;5031139;28;20295;-73
2021/12/07 05:41:00;;;;;;;0.20;0.20;;;;;;;2.69;83.83;101009.47;5036073;28;20021;-73
2021/12/07 05:43:26;;;;;;;0.20;0.20;;;;;;;2.67;83.21;101016.25;5036177;28;20306;-74
2021/12/07 05:45:52;;;;;;;0.20;0.20;;;;;;;2.65;83.46;101018.72;5031863;28;20053;-73
2021/12/07 05:48:20;;;;;;;0.10;0.10;;;;;;;2.62;83.89;101013.38;5018203;28;20137;-73
2021/12/07 05:50:45;;;;;;;0.30;0.30;;;;;;;2.57;84.25;101012.19;5032991;28;20049;-73
2021/12/07 05:53:11;;;;;;;0.30;0.30;;;;;;;2.52;84.46;101004.13;5037136;28;20287;-73
2021/12/07 05:55:37;;;;;;;0.20;0.20;;;;;;;2.47;84.48;101003.84;5032359;28;20045;-74
2021/12/07 05:58:04;;;;;;;0.20;0.20;;;;;;;2.41;84.56;100994.78;5020261;28;20683;-73
2021/12/07 06:00:32;;;;;;;0.17;0.17;;;;;;;2.36;84.91;100991.03;5025493;28;20105;-74
2021/12/07 06:03:03;;;;;;;0.20;0.20;;;;;;;2.29;84.94;100994.88;5016620;28;20052;-73
2021/12/07 06:05:29;;;;;;;0.30;0.30;;;;;;;2.22;84.82;100996.19;5034027;28;20307;-74
2021/12/07 06:07:55;;;;;;;0.23;0.23;;;;;;;2.16;85.08;100999.28;5034976;28;20535;-74
2021/12/07 06:10:21;;;;;;;0.20;0.20;;;;;;;2.09;85.17;100994.50;5034067;28;20038;-74
2021/12/07 06:12:46;;;;;;;0.20;0.20;;;;;;;2.03;85.29;101007.00;5034730;28;20642;-74
2021/12/07 06:15:15;;;;;;;0.20;0.20;;;;;;;1.96;85.36;101005.72;5036903;28;20057;-74
2021/12/07 06:17:40;;;;;;;0.20;0.20;;;;;;;1.91;84.82;101001.94;5033524;28;20031;-73
2021/12/07 06:20:06;;;;;;;0.13;0.13;;;;;;;1.86;85.62;101008.50;5036378;28;20292;-75
2021/12/07 06:22:32;;;;;;;0.17;0.17;;;;;;;1.80;85.59;101008.09;5036107;28;20030;-74
2021/12/07 06:24:57;;;;;;;0.20;0.20;;;;;;;1.74;85.75;100996.53;5034880;28;20099;-74
2021/12/07 06:27:23;;;;;;;0.20;0.20;;;;;;;1.71;85.85;101000.59;5032453;28;20667;-73
2021/12/07 06:29:48;;;;;;;0.37;0.37;;;;;;;1.63;85.80;100993.25;5040559;28;20044;-74
2021/12/07 06:32:14;;;;;;;0.10;0.10;;;;;;;1.59;85.94;101003.25;5039772;28;20124;-74
2021/12/07 06:34:39;;;;;;;0.20;0.20;;;;;;;1.53;86.18;101008.00;5039494;28;20041;-74
2021/12/07 06:37:05;;;;;;;0.20;0.20;;;;;;;1.48;86.34;101011.19;5038649;28;20124;-74
2021/12/07 06:39:30;;;;;;;0.27;0.27;;;;;;;1.44;86.32;101016.03;5038645;28;20039;-74
2021/12/07 06:41:56;;;;;;;0.20;0.20;;;;;;;1.37;86.04;101010.44;5039661;28;20109;-73
2021/12/07 06:44:21;;;;;;;0.20;0.20;;;;;;;1.30;86.27;101020.25;5040236;28;20025;-73
2021/12/07 06:46:50;;;;;;;0.37;0.37;;;;;;;1.26;86.42;101014.00;5039791;28;20422;-74
2021/12/07 06:49:17;;;;;;;0.20;0.20;;;;;;;1.23;86.50;101011.19;5040089;28;20086;-74
2021/12/07 06:51:43;;;;;;;0.10;0.10;;;;;;;1.23;86.73;101013.75;5038276;28;20276;-74
2021/12/07 06:54:08;;;;;;;0.20;0.20;;;;;;;1.25;86.86;101019.94;5037948;28;20299;-74
2021/12/07 06:56:33;;;;;;;0.17;0.17;;;;;;;1.26;87.32;101015.66;5039084;28;20269;-74
2021/12/07 06:58:59;;;;;;;0.10;0.10;;;;;;;1.24;87.02;101023.28;5040095;28;20036;-73
2021/12/07 07:01:27;;;;;;;0.10;0.10;;;;;;;1.22;87.19;101015.47;5039881;28;20273;-74
2021/12/07 07:03:53;;;;;;;0.20;0.20;;;;;;;1.20;86.99;101019.59;5040902;28;20033;-74
2021/12/07 07:06:19;;;;;;;0.30;0.30;;;;;;;1.18;86.94;101022.88;5038597;28;20535;-74
2021/12/07 07:08:44;;;;;;;0.30;0.30;;;;;;;1.15;87.13;101025.22;5036700;28;20033;-75
2021/12/07 07:11:10;;;;;;;0.43;0.43;;;;;;;1.12;87.10;101020.75;5038401;28;20132;-73
2021/12/07 07:13:35;;;;;;;0.50;0.50;;;;;;;1.12;87.26;101030.19;5040428;28;20029;-74
2021/12/07 07:16:01;;;;;;;0.20;0.20;;;;;;;1.12;87.47;101032.78;5040355;28;20028;-74
2021/12/07 07:18:26;;;;;;;0.20;0.20;;;;;;;1.11;87.47;101028.41;5039704;28;20438;-75
2021/12/07 07:20:54;;;;;;;0.20;0.20;;;;;;;1.10;87.66;101027.50;5039678;28;20064;-73
2021/12/07 07:23:20;;;;;;;0.30;0.30;;;;;;;1.09;87.59;101023.13;5037278;28;20456;-73
2021/12/07 07:25:45;;;;;;;0.30;0.30;;;;;;;1.07;87.45;101016.97;5018893;28;20383;-74
2021/12/07 07:28:10;;;;;;;0.30;0.30;;;;;;;1.07;87.59;101004.09;5018762;28;20042;-74
2021/12/07 07:30:36;;;;;;;0.30;0.30;;;;;;;1.05;87.64;100997.94;5018703;28;20064;-74
2021/12/07 07:33:01;;;;;;;0.20;0.20;;;;;;;1.02;87.53;100993.44;5002226;28;20312;-73
2021/12/07 07:35:27;;;;;;;0.30;0.30;;;;;;;0.99;87.39;100993.22;5017999;28;20030;-73
2021/12/07 07:37:52;;;;;;;0.30;0.30;;;;;;;0.96;87.53;100995.59;5018668;28;20388;-73
2021/12/07 07:40:20;;;;;;;0.43;0.43;;;;;;;0.95;87.49;100996.38;5018295;28;20069;-74
2021/12/07 07:42:45;;;;;;;0.30;0.30;;;;;;;0.92;87.36;100996.16;5018692;28;20052;-74
2021/12/07 07:45:11;;;;;;;0.23;0.23;;;;;;;0.93;87.74;100990.25;5019879;28;20292;-73
2021/12/07 07:47:37;;;;;;;0.30;0.30;;;;;;;0.90;87.64;100990.00;5038415;28;20044;-74
2021/12/07 07:50:04;;;;;;;0.20;0.20;;;;;;;0.89;88.01;100996.88;5038652;28;20025;-74
2021/12/07 07:52:30;;;;;;;0.20;0.20;;;;;;;0.91;87.58;100995.28;5037460;28;20288;-74
2021/12/07 07:54:55;;;;;;;0.27;0.27;;;;;;;0.97;87.86;101002.53;5038522;28;20363;-74
2021/12/07 07:57:21;;;;;;;0.30;0.30;;;;;;;1.02;87.88;101001.19;5038379;28;20041;-74
2021/12/07 07:59:46;;;;;;;0.30;0.30;;;;;;;1.08;87.78;101001.59;5020808;28;20036;-74
2021/12/07 08:02:12;;;;;;;0.20;0.20;;;;;;;1.14;87.68;101002.81;5038031;28;20041;-74
2021/12/07 08:04:37;;;;;;;0.17;0.17;;;;;;;1.22;87.96;100996.50;5038225;28;20033;-73
2021/12/07 08:07:03;;;;;;;0.30;0.30;;;;;;;1.26;87.75;101006.25;5037981;28;20135;-74
2021/12/07 08:09:28;;;;;;;0.50;0.50;;;;;;;1.28;87.41;101006.34;5037980;28;20357;-73
2021/12/07 08:11:53;;;;;;;0.10;0.10;;;;;;;1.28;87.04;101014.06;5038069;28;20345;-73
2021/12/07 08:14:19;;;;;;;0.20;0.20;;;;;;;1.26;87.46;101011.41;5038640;28;20033;-73
2021/12/07 08:16:45;;;;;;;0.30;0.30;;;;;;;1.25;87.51;101001.88;5038173;28;20207;-74
2021/12/07 08:19:11;;;;;;;0.30;0.30;;;;;;;1.24;87.47;101002.66;5037846;28;20041;-74
2021/12/07 08:21:37;;;;;;;0.20;0.20;;;;;;;1.25;87.39;101000.97;5037876;28;20664;-75
2021/12/07 08:24:03;;;;;;;0.30;0.30;;;;;;;1.26;87.49;101003.66;5037404;28;20412;-74
2021/12/07 08:26:29;;;;;;;0.30;0.30;;;;;;;1.29;87.60;101010.69;5037299;28;20018;-74
2021/12/07 08:28:55;;;;;;;0.30;0.30;;;;;;;1.31;87.58;101006.56;5037899;28;20325;-75
2021/12/07 08:31:21;;;;;;;0.30;0.30;;;;;;;1.34;87.55;101010.25;5038002;28;20323;-75
2021/12/07 08:33:47;;;;;;;0.37;0.37;;;;;;;1.42;87.51;101012.47;5037927;28;20318;-75
2021/12/07 08:36:13;;;;;;;0.23;0.23;;;;;;;1.51;87.63;101007.94;5037905;28;20064;-74
2021/12/07 08:38:38;;;;;;;0.30;0.30;;;;;;;1.58;87.42;101001.47;5037826;28;20076;-74
2021/12/07 08:41:04;;;;;;;0.20;0.20;;;;;;;1.64;87.24;101007.94;5037633;28;20044;-74
2021/12/07 08:43:31;;;;;;;0.20;0.20;;;;;;;1.69;87.15;101009.94;5037506;28;20096;-75
2021/12/07 08:45:57;;;;;;;0.20;0.20;;;;;;;1.73;87.25;101002.50;5037908;28;20056;-75
2021/12/07 08:48:23;;;;;;;0.30;0.30;;;;;;;1.79;87.26;100989.09;5037591;28;20317;-75
2021/12/07 08:50:49;;;;;;;0.13;0.13;;;;;;;1.89;87.10;101000.94;5036903;28;20283;-74
2021/12/07 08:53:16;;;;;;;0.20;0.20;;;;;;;1.95;87.00;100998.78;5037080;28;20587;-74
2021/12/07 09:01:15;;;;;;;0.10;0.10;;;;;;;2.12;86.86;101001.56;5037427;28;20327;-73
2021/12/07 09:03:40;;;;;;;0.20;0.20;;;;;;;2.25;86.89;101004.13;5036759;28;20275;-73
2021/12/07 09:06:05;;;;;;;0.17;0.17;;;;;;;2.41;86.61;101013.78;5037812;28;20442;-74
2021/12/07 09:08:31;;;;;;;0.20;0.20;;;;;;;2.54;86.30;100994.78;5037158;28;20029;-74
2021/12/07 09:10:56;;;;;;;0.20;0.20;;;;;;;2.71;86.06;100998.44;5036642;28;20050;-74
2021/12/07 09:13:24;;;;;;;0.10;0.10;;;;;;;2.88;85.54;100996.00;5037430;28;20377;-73
2021/12/07 09:15:51;;;;;;;0.20;0.20;;;;;;;3.05;85.10;100990.97;5035976;28;20025;-75
2021/12/07 09:18:16;;;;;;;0.27;0.27;;;;;;;3.20;84.72;100985.81;5037642;28;20029;-74
2021/12/07 09:20:42;;;;;;;0.20;0.20;;;;;;;3.24;83.60;100996.44;5036307;28;20272;-76
2021/12/07 09:23:07;;;;;;;0.20;0.20;;;;;;;3.32;83.73;100993.44;5037678;28;20028;-76
2021/12/07 09:25:33;;;;;;;0.20;0.20;;;;;;;3.37;83.08;100986.84;5036778;28;20466;-80
2021/12/07 09:27:58;;;;;;;0.20;0.20;;;;;;;3.48;82.19;100987.50;5036076;28;20037;-77
2021/12/07 09:30:24;;;;;;;0.27;0.27;;;;;;;3.51;82.14;100988.56;5037097;28;20029;-80
2021/12/07 09:32:50;;;;;;;0.20;0.20;;;;;;;3.59;81.77;100983.84;5037847;28;20402;-76
2021/12/07 09:35:16;;;;;;;0.23;0.23;;;;;;;3.61;82.10;100990.00;5038128;28;20026;-76
2021/12/07 09:37:41;;;;;;;0.20;0.20;;;;;;;3.64;81.73;100981.50;5036114;28;20108;-78
2021/12/07 09:40:11;;;;;;;0.30;0.30;;;;;;;3.68;82.18;100996.44;5036935;28;20033;-77
2021/12/07 09:42:36;;;;;;;0.27;0.27;;;;;;;3.71;81.98;101005.28;5036592;28;20025;-79
2021/12/07 09:45:07;;;;;;;0.33;0.33;;;;;;;3.81;81.75;101001.53;5037063;28;20087;-78
2021/12/07 09:47:33;;;;;;;0.20;0.20;;;;;;;3.90;80.97;101000.28;5037606;28;20029;-77
2021/12/07 09:49:58;;;;;;;0.30;0.30;;;;;;;4.09;80.33;100999.63;5037687;28;20352;-78
2021/12/07 09:52:25;;;;;;;0.20;0.20;;;;;;;4.17;79.81;101010.47;5036904;28;20124;-76
2021/12/07 09:54:51;;;;;;;0.20;0.20;;;;;;;4.21;79.71;101015.91;5036438;28;20017;-76
2021/12/07 09:57:16;;;;;;;0.30;0.30;;;;;;;4.25;79.31;101020.44;5035830;28;20327;-77
2021/12/07 09:59:42;;;;;;;0.30;0.30;;;;;;;4.32;80.00;101020.78;5036357;28;20025;-77
2021/12/07 10:02:08;;;;;;;0.30;0.30;;;;;;;4.40;78.89;101011.75;5038266;28;20048;-77
2021/12/07 10:04:34;;;;;;;0.30;0.30;;;;;;;4.48;78.85;101010.47;5039870;28;20365;-77
2021/12/07 10:07:00;;;;;;;0.30;0.30;;;;;;;4.53;79.13;101014.22;5039948;28;20126;-78
2021/12/07 10:09:25;;;;;;;0.30;0.30;;;;;;;4.59;78.16;101011.06;5040467;28;20395;-77
2021/12/07 10:11:54;;;;;;;0.30;0.30;;;;;;;4.68;78.16;101008.13;5039784;28;20091;-84
2021/12/07 10:14:20;;;;;;;0.27;0.27;;;;;;;4.79;77.85;100999.19;5040016;28;20044;-77
2021/12/07 10:16:46;;;;;;;0.30;0.30;;;;;;;4.94;77.77;100993.94;5040650;28;20383;-78
2021/12/07 10:19:15;;;;;;;0.30;0.30;;;;;;;5.12;76.93;100981.88;5039725;28;20068;-77
2021/12/07 10:21:43;;;;;;;0.30;0.30;;;;;;;5.22;76.80;100981.53;5040514;28;20022;-78
2021/12/07 10:24:11;;;;;;;0.30;0.30;;;;;;;5.28;75.61;100976.66;5040474;28;20036;-76
2021/12/07 10:26:39;;;;;;;0.30;0.30;;;;;;;5.32;75.02;100960.44;5039635;28;20106;-76
2021/12/07 10:29:16;;;;;;;0.20;0.20;;;;;;;5.32;74.98;100950.06;5041077;28;20099;-85
2021/12/07 10:31:44;;;;;;;0.27;0.27;;;;;;;5.46;74.41;100948.16;5041439;28;20017;-79
2021/12/07 10:34:19;;;;;;;0.30;0.30;;;;;;;5.47;74.95;100949.03;5040813;28;20030;-78
2021/12/07 10:36:48;;;;;;;0.40;0.40;;;;;;;5.64;74.17;100932.63;5040434;28;20049;-86
2021/12/07 10:39:18;;;;;;;0.40;0.40;;;;;;;5.78;72.78;100928.09;5040036;28;20033;-78
2021/12/07 10:41:50;;;;;;;0.30;0.30;;;;;;;5.68;72.89;100924.97;5039531;28;20392;-78
2021/12/07 10:44:22;;;;;;;0.30;0.30;;;;;;;5.47;73.77;100928.25;5040676;28;20029;-78
2021/12/07 10:46:56;;;;;;;0.30;0.30;;;;;;;5.27;74.72;100917.75;5040002;28;20113;-80
2021/12/07 10:49:34;;;;;;;0.40;0.40;;;;;;;5.17;74.63;100918.97;5040216;28;20273;-78
2021/12/07 10:52:21;;;;;;;0.27;0.27;;;;;;;5.03;75.28;100918.28;5039806;28;20294;-78
2021/12/07 10:54:58;;;;;;;0.30;0.30;;;;;;;4.98;75.07;100914.53;5039250;28;20025;-76
2021/12/07 10:57:28;;;;;;;0.38;0.38;;;;;;;4.79;75.09;100921.34;5039227;28;20300;-77
2021/12/07 11:00:17;;;;;;;0.40;0.40;;;;;;;4.69;76.29;100929.47;5038231;28;20040;-78
2021/12/07 11:02:53;;;;;;;0.63;0.63;;;;;;;4.64;75.98;100933.50;5019209;28;20423;-79
2021/12/07 11:05:27;;;;;;;0.38;0.38;;;;;;;4.55;77.57;100936.53;5017543;28;20149;-83
2021/12/07 11:07:52;;;;;;;0.20;0.20;;;;;;;4.53;76.68;100920.88;5019423;28;20459;-78
2021/12/07 11:10:29;;;;;;;0.30;0.30;;;;;;;4.42;75.99;100915.91;5019348;28;20112;-78
2021/12/07 11:15:27;;;;;;;0.30;0.30;;;;;;;4.30;77.00;100914.41;5019275;28;20349;-78
2021/12/07 11:17:57;;;;;;;0.30;0.30;;;;;;;4.22;77.60;100908.81;5019560;28;20026;-79
2021/12/07 11:20:23;;;;;;;0.30;0.30;;;;;;;4.25;76.75;100908.09;5021551;28;20084;-79
2021/12/07 11:22:57;;;;;;;0.30;0.30;;;;;;;4.22;76.46;100897.53;5019638;28;20522;-87
2021/12/07 11:25:42;;;;;;;0.40;0.40;;;;;;;4.18;77.37;100904.25;5019207;28;20025;-78
2021/12/07 11:31:32;;;;;;;0.30;0.30;;;;;;;4.37;77.16;100888.00;5019924;28;20411;-81
2021/12/07 11:34:19;;;;;;;0.32;0.32;;;;;;;4.55;76.55;100874.28;5032196;28;20036;-78
2021/12/07 11:36:49;;;;;;;0.30;0.30;;;;;;;4.52;75.50;100862.03;5039531;28;20029;-78
2021/12/07 11:39:37;;;;;;;0.30;0.30;;;;;;;4.46;74.31;100869.47;5039762;28;20026;-79
2021/12/07 11:42:10;;;;;;;0.30;0.30;;;;;;;4.41;75.18;100865.72;5038560;28;20056;-80
2021/12/07 11:44:48;;;;;;;0.40;0.40;;;;;;;4.40;74.53;100854.47;5019743;28;20084;-82
2021/12/07 11:47:14;;;;;;;0.40;0.40;;;;;;;4.49;74.98;100838.50;5037220;28;20045;-78
2021/12/07 11:49:40;;;;;;;0.30;0.30;;;;;;;4.59;74.42;100834.69;5039858;28;20087;-83
2021/12/07 11:52:08;;;;;;;0.37;0.37;;;;;;;4.71;73.90;100834.44;5040588;28;20106;-82
2021/12/07 11:54:36;;;;;;;0.30;0.30;;;;;;;4.71;74.51;100818.88;5040216;28;20333;-77
2021/12/07 11:57:04;;;;;;;0.40;0.40;;;;;;;4.78;74.91;100809.69;5039285;28;20036;-78
2021/12/07 11:59:31;;;;;;;0.30;0.30;;;;;;;4.85;74.84;100791.03;5040808;28;20112;-77
2021/12/07 12:01:56;;;;;;;0.30;0.30;;;;;;;4.95;73.43;100784.63;5040465;28;20144;-78
2021/12/07 12:04:22;;;;;;;0.20;0.20;;;;;;;4.90;74.09;100775.72;5041060;28;20052;-76
2021/12/07 12:06:49;;;;;;;0.30;0.30;;;;;;;4.93;73.10;100775.88;5039451;28;20114;-77
2021/12/07 12:09:16;;;;;;;0.30;0.30;;;;;;;4.98;71.96;100764.00;5038420;28;20037;-71
2021/12/07 12:11:51;;;;;;;0.30;0.30;;;;;;;4.97;72.91;100770.00;5038803;28;20291;-77
2021/12/07 12:15:02;;;;;;;0.37;0.37;;;;;;;4.93;73.62;100781.94;5040072;28;20036;-76
2021/12/07 12:17:35;;;;;;;0.30;0.30;;;;;;;4.97;72.33;100754.44;5038717;28;20041;-77
2021/12/07 12:20:19;;;;;;;0.33;0.33;;;;;;;5.02;72.12;100752.06;5039874;28;20025;-76
2021/12/07 12:23:05;;;;;;;0.30;0.30;;;;;;;4.94;71.45;100749.13;5031617;28;20057;-74
2021/12/07 12:25:31;;;;;;;0.32;0.32;;;;;;;4.90;72.07;100742.88;5033516;28;20361;-76
2021/12/07 12:27:57;;;;;;;0.30;0.30;;;;;;;4.99;71.31;100749.34;5039399;28;20127;-75
2021/12/07 12:30:34;;;;;;;1.50;1.17;;;;;;;4.97;71.29;100740.59;5038721;28;20026;-80
2021/12/07 12:33:12;;;;;;;0.30;0.30;;;;;;;4.89;71.87;100733.31;5034518;28;20029;-75
2021/12/07 12:35:41;;;;;;;0.30;0.30;;;;;;;4.94;70.58;100726.63;5037731;28;20049;-79
2021/12/07 12:38:27;;;;;;;0.30;0.30;;;;;;;4.79;72.12;100721.56;5038145;28;20037;-76
2021/12/07 12:41:08;;;;;;;0.40;0.40;;;;;;;4.71;72.88;100706.44;5038025;28;20018;-76
2021/12/07 12:43:43;;;;;;;0.30;0.30;;;;;;;4.72;73.69;100684.91;5031039;28;20044;-80
2021/12/07 12:46:13;;;;;;;0.30;0.30;;;;;;;4.68;73.26;100671.75;5034561;28;20041;-77
2021/12/07 12:48:44;;;;;;;0.30;0.30;;;;;;;4.77;72.01;100686.91;5036007;28;20022;-78
2021/12/07 12:51:09;;;;;;;0.30;0.30;;;;;;;4.68;73.42;100689.91;5036961;28;20049;-77
2021/12/07 12:53:35;;;;;;;0.30;0.30;;;;;;;4.67;72.84;100654.41;5037293;28;20450;-76
2021/12/07 12:56:07;;;;;;;0.40;0.40;;;;;;;4.59;73.68;100665.19;5037478;28;20018;-76
2021/12/07 12:58:38;;;;;;;0.30;0.30;;;;;;;4.52;74.43;100654.56;5035113;28;20030;-77
2021/12/07 13:01:10;;;;;;;0.40;0.40;;;;;;;4.48;74.91;100651.72;5035619;28;20048;-77
2021/12/07 13:03:57;;;;;;;0.30;0.30;;;;;;;4.46;73.98;100643.88;5035533;28;20033;-76
2021/12/07 13:06:25;;;;;;;0.30;0.30;;;;;;;4.48;74.14;100637.03;5032765;28;20275;-76
2021/12/07 13:08:56;;;;;;;0.30;0.30;;;;;;;4.48;74.32;100633.56;5036000;28;20053;-76
2021/12/07 13:11:53;;;;;;;0.30;0.30;;;;;;;4.43;74.07;100622.97;5035903;28;20112;-77
2021/12/07 13:14:24;;;;;;;0.30;0.30;;;;;;;4.33;75.00;100611.25;5035353;28;20037;-83
2021/12/07 13:17:08;;;;;;;0.30;0.30;;;;;;;4.36;74.48;100608.78;5031586;28;20029;-77
2021/12/07 13:20:04;;;;;;;0.30;0.30;;;;;;;4.37;74.32;100610.56;5035151;28;20064;-75
2021/12/07 13:22:40;;;;;;;0.30;0.30;;;;;;;4.35;74.14;100596.66;5034615;28;20048;-77
2021/12/07 13:25:16;;;;;;;0.30;0.30;;;;;;;4.35;73.70;100588.88;5034854;28;20049;-80